Hauptseite
METAR-TAF:

METAR-TAF

Flughäfen :

Verona, Italien

Flughafen Verona

Breite: 45-23N, Länge: 010-52E, Höhe: 67 m

Beobachtung

Neuester Wetterbericht von vor 27 Minuten, um 23:20 UTC
Wind 3 kt aus Nord/Nordwest
Temperatur 0°C
Luftfeuchtigkeit 86%
Luftdruck 1011 hPa
Sichtweite 10 km oder mehr
keine Wolken unter 1500 m und keine Kumulonimbus oder Gewitterwolken

METAR: LIPX 182320Z 33003KT CAVOK M00/M02 Q1011

Zeit: 00:47 (23:47 UTC)

Prognose

Neuester Wetterbericht von vor 47 Minuten, um 23:00 UTC
Gültige Prognose vom 19 um 00 UTC bis 19 um 09 UTC
Wind 5 kt aus unterschiedlichen Richtungen
Sichtweite 10 km oder mehr
keine Wolken unter 1500 m und keine Kumulonimbus oder Gewitterwolken

TAF: LIPX 182300Z 1900/1909 VRB05KT CAVOK

Wetterbeobachtungen und Prognosen von mehr als 4000 Flughäfen (METAR und TAF Bericht).

Die verfügbaren Stationen werden durch gelbe und rote Markierungen auf der Karte dargestellt.

Führen Sie die Maus auf sie, um den Namen der Station zu sehen.

Darauf klicken, um die Beobachtung von Wetterbeobachtungen und Prognosen zu sehen.

Um die Karte zu ändern : klicken Sie auf den grünen Tasten mit einem schwarzen Kreuz Zum Vergrößern, auf den grünen Button mit einem Gedankenstrich zu verkleinern, oder auf die grünen Pfeile für benachbarte Karten.


METAR-TAF: